Time;durP1;ratioP1;P1;durP2;ratioP2;P2;SDS_P1;SDS_P2;PMS_P1;PMS_P2;Temp;Humidity;BMP_temperature;BMP_pressure;BME280_temperature;BME280_humidity;BME280_pressure;Samples;Min_cycle;Max_cycle;Signal;HPM_P1;HPM_P2
2022/06/14 00:01:45;;;;;;;5.67;2.17;;;15.20;60.20;;;;;;6233718;23;20179;-88
2022/06/14 00:04:11;;;;;;;4.90;2.40;;;15.20;60.20;;;;;;6229242;23;20521;-87
2022/06/14 00:06:37;;;;;;;5.17;3.07;;;15.10;60.50;;;;;;6219927;23;20591;-88
2022/06/14 00:09:03;;;;;;;6.07;2.40;;;15.10;61.10;;;;;;6218988;23;20172;-88
2022/06/14 00:11:32;;;;;;;3.00;2.17;;;15.00;60.70;;;;;;6218951;23;20760;-88
2022/06/14 00:14:00;;;;;;;5.15;2.50;;;15.00;61.30;;;;;;6223302;23;20160;-88
2022/06/14 00:16:27;;;;;;;3.42;2.20;;;15.00;63.80;;;;;;6244062;23;20178;-87
2022/06/14 00:18:53;;;;;;;5.50;2.60;;;15.00;64.40;;;;;;6220014;23;20169;-88
2022/06/14 00:21:19;;;;;;;4.57;2.30;;;14.90;63.70;;;;;;6218593;23;20210;-88
2022/06/14 00:23:45;;;;;;;5.05;2.00;;;14.90;64.60;;;;;;6218968;23;20152;-89
2022/06/14 00:26:15;;;;;;;4.53;2.20;;;14.90;63.40;;;;;;6219560;23;20305;-89
2022/06/14 00:28:44;;;;;;;5.68;2.58;;;14.90;61.50;;;;;;6218520;23;20249;-87
2022/06/14 00:31:17;;;;;;;8.43;4.45;;;15.00;63.40;;;;;;6220186;23;20164;-88
2022/06/14 00:33:43;;;;;;;6.90;3.50;;;14.90;63.80;;;;;;6219055;23;20148;-88
2022/06/14 00:36:19;;;;;;;7.33;3.17;;;14.90;62.60;;;;;;6219401;23;20555;-88
2022/06/14 00:38:45;;;;;;;4.65;2.78;;;15.00;60.20;;;;;;6226456;22;20418;-89
2022/06/14 00:41:37;;;;;;;7.65;3.10;;;14.90;59.70;;;;;;6244071;22;20200;-87
2022/06/14 00:44:05;;;;;;;5.97;2.50;;;15.00;59.10;;;;;;6229692;22;20198;-87
2022/06/14 00:47:03;;;;;;;5.10;2.35;;;14.90;59.80;;;;;;6245168;22;20206;-88
2022/06/14 00:49:56;;;;;;;4.93;2.20;;;14.80;60.80;;;;;;6167843;23;20214;-86
2022/06/14 00:52:42;;;;;;;7.32;3.13;;;14.80;60.70;;;;;;6272135;22;20196;-86
2022/06/14 00:55:30;;;;;;;6.13;2.83;;;14.70;60.70;;;;;;6244598;23;20192;-87
2022/06/14 00:58:23;;;;;;;8.85;3.28;;;14.70;60.80;;;;;;6218985;22;20164;-88
2022/06/14 01:01:02;;;;;;;4.82;2.53;;;14.60;64.00;;;;;;6246094;23;20505;-88
2022/06/14 01:03:39;;;;;;;3.30;2.22;;;14.50;63.50;;;;;;6219433;23;20579;-88
2022/06/14 01:06:11;;;;;;;3.90;2.40;;;14.50;64.40;;;;;;6218382;23;20145;-88
2022/06/14 01:08:56;;;;;;;8.15;2.60;;;14.40;63.70;;;;;;6219521;23;20176;-88
2022/06/14 01:11:41;;;;;;;5.97;2.95;;;14.50;62.10;;;;;;6218303;23;20217;-88
2022/06/14 01:14:11;;;;;;;3.00;2.40;;;14.40;62.50;;;;;;6218708;23;20590;-88
2022/06/14 01:16:37;;;;;;;4.93;2.22;;;14.40;62.40;;;;;;6218342;23;20176;-89
2022/06/14 01:19:09;;;;;;;8.43;2.97;;;14.40;61.90;;;;;;6245152;22;20247;-88
2022/06/14 01:22:17;;;;;;;6.25;2.80;;;14.40;61.40;;;;;;6219896;23;20446;-88
2022/06/14 01:24:44;;;;;;;5.90;2.90;;;14.40;61.40;;;;;;6206536;23;20165;-88
2022/06/14 01:27:13;;;;;;;6.60;2.85;;;14.20;64.10;;;;;;6218948;23;20183;-88
2022/06/14 01:29:42;;;;;;;4.65;3.05;;;14.20;65.30;;;;;;6220693;23;20177;-88
2022/06/14 01:32:13;;;;;;;4.65;3.28;;;14.10;67.40;;;;;;6225835;23;20178;-87
2022/06/14 01:34:44;;;;;;;9.30;3.72;;;14.10;67.40;;;;;;6218744;23;20705;-88
2022/06/14 01:37:10;;;;;;;4.85;2.80;;;14.10;66.90;;;;;;6217906;23;20575;-89
2022/06/14 01:39:37;;;;;;;7.27;3.13;;;14.00;66.60;;;;;;6219966;23;20228;-88
2022/06/14 01:42:28;;;;;;;6.82;3.10;;;14.00;65.50;;;;;;6218195;23;20451;-88
2022/06/14 01:45:03;;;;;;;14.50;3.72;;;14.10;64.10;;;;;;6222329;23;20231;-88
2022/06/14 01:47:38;;;;;;;11.98;3.20;;;14.10;63.20;;;;;;6217323;23;20137;-88
2022/06/14 01:53:23;;;;;;;7.78;2.42;;;13.90;64.20;;;;;;6264790;23;20131;-91
2022/06/14 01:56:18;;;;;;;4.63;2.60;;;13.90;64.30;;;;;;6219473;23;20151;-90
2022/06/14 01:59:02;;;;;;;4.22;2.60;;;13.90;65.60;;;;;;6218788;23;20177;-89
2022/06/14 02:01:47;;;;;;;5.03;2.70;;;13.80;65.30;;;;;;6218033;23;20495;-88
2022/06/14 02:04:39;;;;;;;5.45;2.90;;;13.90;65.40;;;;;;6223024;23;20243;-90
2022/06/14 02:07:34;;;;;;;3.92;2.20;;;13.80;64.80;;;;;;6265989;23;20155;-88
2022/06/14 02:10:11;;;;;;;8.35;2.50;;;13.80;66.80;;;;;;6180727;23;20222;-89
2022/06/14 02:12:42;;;;;;;4.15;2.45;;;13.80;67.10;;;;;;6218467;23;20190;-88
2022/06/14 02:15:20;;;;;;;6.47;2.55;;;13.80;67.70;;;;;;6219930;23;20188;-88
2022/06/14 02:18:01;;;;;;;3.00;2.20;;;13.70;67.20;;;;;;6217708;22;20154;-89
2022/06/14 02:20:35;;;;;;;6.13;2.35;;;13.70;66.30;;;;;;6245669;23;20625;-89
2022/06/14 02:23:09;;;;;;;7.88;2.72;;;13.70;66.10;;;;;;6221339;23;20289;-89
2022/06/14 02:25:42;;;;;;;3.55;2.35;;;13.70;65.80;;;;;;6245113;23;20255;-88
2022/06/14 02:28:18;;;;;;;4.10;2.45;;;13.70;65.70;;;;;;6246126;22;20237;-88
2022/06/14 02:31:19;;;;;;;4.70;2.30;;;13.70;66.50;;;;;;6218403;23;20153;-88
2022/06/14 02:34:03;;;;;;;4.50;2.25;;;13.70;65.70;;;;;;6219142;23;20190;-89
2022/06/14 02:36:48;;;;;;;10.68;2.50;;;13.70;65.50;;;;;;6218117;23;20706;-89
2022/06/14 02:39:23;;;;;;;4.88;2.97;;;13.60;65.90;;;;;;6218499;23;20183;-90
2022/06/14 02:42:24;;;;;;;6.63;2.88;;;13.60;68.60;;;;;;6194302;23;20184;-89
2022/06/14 02:45:11;;;;;;;5.55;2.55;;;13.60;68.10;;;;;;6217943;23;20235;-89
2022/06/14 02:47:48;;;;;;;6.72;2.92;;;13.60;69.00;;;;;;6217822;23;20141;-89
2022/06/14 02:50:25;;;;;;;6.38;2.80;;;13.60;67.80;;;;;;6244991;23;20136;-90
2022/06/14 02:53:14;;;;;;;12.35;3.03;;;13.50;67.20;;;;;;6194722;23;20187;-89
2022/06/14 02:56:10;;;;;;;3.00;2.65;;;13.60;68.20;;;;;;6245518;22;20160;-89
2022/06/14 02:58:52;;;;;;;4.70;2.22;;;13.60;67.20;;;;;;6217390;23;20213;-89
2022/06/14 03:01:27;;;;;;;8.45;3.00;;;13.60;67.00;;;;;;6216347;23;20610;-89
2022/06/14 03:04:10;;;;;;;5.28;2.85;;;13.60;67.00;;;;;;6219339;23;20172;-88
2022/06/14 03:07:27;;;;;;;4.50;2.45;;;13.50;68.00;;;;;;6221899;23;20148;-87
2022/06/14 03:09:53;;;;;;;10.10;3.15;;;13.50;67.40;;;;;;6152819;23;20234;-88
2022/06/14 03:13:24;;;;;;;13.45;3.15;;;13.50;68.10;;;;;;6129284;23;20163;-88
2022/06/14 03:16:01;;;;;;;12.45;3.45;;;13.50;69.00;;;;;;6065421;23;20159;-88
2022/06/14 03:18:58;;;;;;;8.40;3.30;;;13.50;68.70;;;;;;6095405;23;20179;-88
2022/06/14 03:21:35;;;;;;;7.07;3.20;;;13.40;69.80;;;;;;6195290;23;20210;-87
2022/06/14 03:24:21;;;;;;;8.60;4.10;;;13.40;70.40;;;;;;6270808;22;20192;-87
2022/06/14 03:27:07;;;;;;;11.30;4.00;;;13.40;71.00;;;;;;6244872;22;20181;-86
2022/06/14 03:30:10;;;;;;;9.05;3.72;;;13.40;71.30;;;;;;6245583;22;20180;-86
2022/06/14 03:32:45;;;;;;;5.57;2.53;;;13.40;72.50;;;;;;6272476;22;20196;-86
2022/06/14 03:35:25;;;;;;;5.47;3.42;;;13.40;71.50;;;;;;6245770;22;20143;-87
2022/06/14 03:37:53;;;;;;;10.18;3.30;;;13.30;69.90;;;;;;6271631;22;20144;-86
2022/06/14 03:40:21;;;;;;;8.95;3.33;;;13.30;69.40;;;;;;6225329;23;20194;-87
2022/06/14 03:42:48;;;;;;;7.35;3.20;;;13.30;69.60;;;;;;6231943;22;20207;-87
2022/06/14 03:45:19;;;;;;;10.40;3.00;;;13.30;69.90;;;;;;6230564;23;20156;-87
2022/06/14 03:47:44;;;;;;;8.68;3.38;;;13.30;69.20;;;;;;6219335;22;20141;-86
2022/06/14 03:50:50;;;;;;;13.10;3.50;;;13.30;69.50;;;;;;6219424;23;20156;-87
2022/06/14 03:53:48;;;;;;;5.07;3.15;;;13.30;70.00;;;;;;6219565;23;20151;-88
2022/06/14 03:56:48;;;;;;;6.13;3.30;;;13.30;69.40;;;;;;6264547;22;20204;-87
2022/06/14 03:59:43;;;;;;;6.65;3.22;;;13.30;68.30;;;;;;6201350;23;20192;-88
2022/06/14 04:02:52;;;;;;;12.25;3.38;;;13.40;67.60;;;;;;6246183;23;20251;-88
2022/06/14 04:05:26;;;;;;;5.35;2.35;;;13.40;67.50;;;;;;6245628;22;20168;-86
2022/06/14 04:07:59;;;;;;;17.92;5.20;;;13.50;66.70;;;;;;6218761;22;20184;-87
2022/06/14 04:10:34;;;;;;;12.40;3.85;;;13.40;67.30;;;;;;6246302;23;20144;-88
2022/06/14 04:13:27;;;;;;;12.88;3.75;;;13.40;67.20;;;;;;6219461;23;20136;-87
2022/06/14 04:16:02;;;;;;;18.45;3.17;;;13.40;69.30;;;;;;6218864;23;20149;-87
2022/06/14 04:18:41;;;;;;;8.38;3.15;;;13.40;68.10;;;;;;6219537;23;20172;-87
2022/06/14 04:21:53;;;;;;;9.43;3.40;;;13.40;68.30;;;;;;6218350;23;20180;-88
2022/06/14 04:24:37;;;;;;;4.20;3.15;;;13.50;68.20;;;;;;6223927;23;20156;-88
2022/06/14 04:27:06;;;;;;;10.20;3.78;;;13.50;67.40;;;;;;6218772;23;20187;-88
2022/06/14 04:29:38;;;;;;;13.43;3.45;;;13.50;68.00;;;;;;6219479;23;20594;-88
2022/06/14 04:32:35;;;;;;;8.93;3.65;;;13.60;67.10;;;;;;6220073;23;20148;-88
2022/06/14 04:35:08;;;;;;;9.93;3.67;;;13.60;66.60;;;;;;6245634;23;20144;-88
2022/06/14 04:37:39;;;;;;;14.68;4.40;;;13.70;66.10;;;;;;6249650;23;20143;-88
2022/06/14 04:40:11;;;;;;;4.43;2.53;;;13.80;66.70;;;;;;6224014;23;20207;-88
2022/06/14 04:43:01;;;;;;;6.43;3.45;;;13.80;66.00;;;;;;6219995;23;20145;-87
2022/06/14 04:45:43;;;;;;;8.57;3.28;;;13.90;65.40;;;;;;6218624;23;20145;-87
2022/06/14 04:48:38;;;;;;;5.95;3.33;;;14.00;65.50;;;;;;6218038;23;20178;-88
2022/06/14 04:51:29;;;;;;;9.00;3.25;;;14.00;66.40;;;;;;6180860;23;20163;-87
2022/06/14 04:54:10;;;;;;;10.50;3.83;;;14.10;65.40;;;;;;6178354;23;20156;-88
2022/06/14 04:57:02;;;;;;;9.30;3.30;;;14.10;65.70;;;;;;6219153;23;20203;-88
2022/06/14 04:59:35;;;;;;;11.68;4.05;;;14.20;65.60;;;;;;6233157;22;20894;-86
2022/06/14 05:02:09;;;;;;;7.53;4.32;;;14.30;65.80;;;;;;6219137;23;20153;-85
2022/06/14 05:04:42;;;;;;;9.85;4.20;;;14.40;65.70;;;;;;6218805;23;20168;-87
2022/06/14 05:07:24;;;;;;;6.47;3.72;;;14.40;64.40;;;;;;6219051;23;20582;-87
2022/06/14 05:09:54;;;;;;;7.07;3.95;;;14.50;64.80;;;;;;6219458;23;20494;-88
2022/06/14 05:12:28;;;;;;;5.90;3.70;;;14.50;64.50;;;;;;6246398;23;20156;-88
2022/06/14 05:15:17;;;;;;;5.07;3.80;;;14.70;65.10;;;;;;6219239;23;20148;-87
2022/06/14 05:17:57;;;;;;;10.27;3.80;;;15.20;63.70;;;;;;6217756;22;20183;-88
2022/06/14 05:20:23;;;;;;;5.63;3.83;;;16.10;62.40;;;;;;6218518;23;20476;-88
2022/06/14 05:23:28;;;;;;;10.00;3.70;;;17.50;59.60;;;;;;6218424;23;20239;-88
2022/06/14 05:26:02;;;;;;;3.93;2.83;;;19.10;54.80;;;;;;6219024;23;20148;-88
2022/06/14 05:28:46;;;;;;;6.47;3.33;;;20.60;49.70;;;;;;6245471;22;20705;-88
2022/06/14 05:31:49;;;;;;;8.20;3.70;;;21.90;45.50;;;;;;6245682;23;20406;-88
2022/06/14 05:34:26;;;;;;;3.70;2.73;;;22.90;39.70;;;;;;6265921;23;20387;-88
2022/06/14 05:37:12;;;;;;;6.33;3.00;;;23.60;37.60;;;;;;6219556;23;20380;-88
2022/06/14 05:39:56;;;;;;;5.87;2.57;;;24.10;37.10;;;;;;6245954;22;20406;-88
2022/06/14 05:42:30;;;;;;;7.07;3.50;;;25.00;35.40;;;;;;6219733;23;20873;-88
2022/06/14 05:45:01;;;;;;;6.37;2.77;;;25.40;33.10;;;;;;6227246;23;20375;-89
2022/06/14 05:47:37;;;;;;;4.90;3.37;;;25.30;32.20;;;;;;6239560;23;20421;-87
2022/06/14 05:50:11;;;;;;;4.90;2.87;;;25.00;32.70;;;;;;6246972;22;20533;-87
2022/06/14 05:53:23;;;;;;;4.17;3.73;;;25.00;33.70;;;;;;6219090;23;20442;-87
2022/06/14 05:55:58;;;;;;;7.90;3.40;;;25.00;34.70;;;;;;6184919;23;20388;-88
2022/06/14 05:58:31;;;;;;;7.77;3.33;;;24.90;34.50;;;;;;6248981;22;20486;-87
2022/06/14 06:01:03;;;;;;;6.10;4.20;;;24.70;34.80;;;;;;6224552;23;20688;-88
2022/06/14 06:03:42;;;;;;;7.77;3.60;;;24.50;34.40;;;;;;6247024;23;20387;-88
2022/06/14 06:06:22;;;;;;;11.30;4.33;;;24.40;34.90;;;;;;6223063;23;20716;-90
2022/06/14 06:08:53;;;;;;;5.40;3.43;;;24.10;36.20;;;;;;6242754;23;20410;-89
2022/06/14 06:11:37;;;;;;;5.70;3.90;;;24.00;36.00;;;;;;6242401;22;20400;-89
2022/06/14 06:14:09;;;;;;;7.00;4.40;;;23.90;36.80;;;;;;6242542;22;20397;-90
2022/06/14 06:17:01;;;;;;;4.63;3.20;;;24.10;36.40;;;;;;6244028;22;20383;-89
2022/06/14 06:19:36;;;;;;;7.67;4.40;;;24.10;36.60;;;;;;6243324;22;20502;-88
2022/06/14 06:22:28;;;;;;;9.90;4.10;;;24.10;35.00;;;;;;6244425;23;20417;-90
2022/06/14 06:25:17;;;;;;;6.37;4.13;;;23.80;35.70;;;;;;6225187;23;20481;-89
2022/06/14 06:27:53;;;;;;;6.30;3.97;;;23.60;35.80;;;;;;6219987;22;20449;-90
2022/06/14 06:30:29;;;;;;;9.30;4.63;;;23.20;36.60;;;;;;6218737;23;20438;-90
2022/06/14 06:32:59;;;;;;;13.33;5.50;;;23.20;36.80;;;;;;6219525;23;20480;-91
2022/06/14 06:35:34;;;;;;;8.67;5.27;;;23.10;36.80;;;;;;6218280;23;20423;-90
2022/06/14 06:38:28;;;;;;;10.23;4.80;;;23.40;37.20;;;;;;6218128;22;20419;-90
2022/06/14 06:43:53;;;;;;;5.57;3.67;;;23.50;35.80;;;;;;6247442;23;20363;-89
2022/06/14 06:46:38;;;;;;;8.67;3.63;;;23.20;36.30;;;;;;6220367;23;20388;-89
2022/06/14 06:49:08;;;;;;;6.27;2.90;;;23.30;37.10;;;;;;6248053;22;20431;-89
2022/06/14 06:51:47;;;;;;;4.33;2.97;;;23.30;37.60;;;;;;6225593;23;20416;-91
2022/06/14 06:54:20;;;;;;;6.90;4.70;;;23.50;37.30;;;;;;6225048;23;20367;-91
2022/06/14 06:56:52;;;;;;;6.70;3.77;;;23.60;37.10;;;;;;6227385;23;20472;-91
2022/06/14 06:59:23;;;;;;;8.23;3.80;;;23.60;36.50;;;;;;6255004;22;20408;-92
2022/06/14 07:01:54;;;;;;;6.33;3.80;;;23.60;36.50;;;;;;6226866;23;20935;-92
2022/06/14 07:07:40;;;;;;;9.03;3.97;;;23.50;35.50;;;;;;6247399;23;20411;-92
2022/06/14 07:10:11;;;;;;;4.57;3.43;;;23.30;37.60;;;;;;6220866;23;20436;-91
2022/06/14 07:13:11;;;;;;;8.67;3.83;;;23.30;39.00;;;;;;6220315;23;20387;-92
2022/06/14 07:15:55;;;;;;;7.13;3.97;;;23.20;39.70;;;;;;6220645;23;20380;-92
2022/06/14 07:18:38;;;;;;;8.97;4.00;;;23.30;40.30;;;;;;6220325;23;20454;-91
2022/06/14 07:21:29;;;;;;;6.70;3.60;;;23.40;38.40;;;;;;6220325;23;20766;-92
2022/06/14 07:24:15;;;;;;;10.13;3.53;;;23.30;39.70;;;;;;6232935;22;20389;-91
2022/06/14 07:26:45;;;;;;;5.60;3.97;;;23.30;41.00;;;;;;6258981;23;20825;-91
2022/06/14 07:29:40;;;;;;;6.93;3.30;;;23.40;38.40;;;;;;6197178;23;20524;-91
2022/06/14 07:32:29;;;;;;;6.70;3.70;;;23.20;37.50;;;;;;6226100;23;20411;-91
2022/06/14 07:34:56;;;;;;;6.07;3.40;;;22.80;36.40;;;;;;6265848;23;20375;-91
2022/06/14 07:37:32;;;;;;;5.73;2.47;;;22.20;37.90;;;;;;6268720;22;20387;-91
2022/06/14 07:40:03;;;;;;;4.80;2.50;;;21.70;38.40;;;;;;6260032;22;20908;-92
2022/06/14 07:43:13;;;;;;;3.97;2.10;;;21.30;38.00;;;;;;6222444;23;20439;-91
2022/06/14 07:45:41;;;;;;;6.47;3.17;;;20.90;38.50;;;;;;6227865;23;20483;-91
2022/06/14 07:51:25;;;;;;;5.43;2.63;;;20.30;40.50;;;;;;6247177;23;20370;-89
2022/06/14 07:54:00;;;;;;;5.57;2.67;;;19.90;40.30;;;;;;6221108;23;20601;-90
2022/06/14 07:56:57;;;;;;;7.20;3.20;;;19.60;40.00;;;;;;6218826;23;20851;-91
2022/06/14 07:59:30;;;;;;;5.13;2.75;;;19.30;42.30;;;;;;6203973;23;20411;-91
2022/06/14 08:02:12;;;;;;;4.78;2.67;;;19.30;44.80;;;;;;6195238;23;20237;-92
2022/06/14 08:04:51;;;;;;;3.60;2.00;;;19.20;45.00;;;;;;6220945;23;20226;-92
2022/06/14 08:07:18;;;;;;;5.15;3.22;;;19.10;44.40;;;;;;6221136;23;20209;-92
2022/06/14 08:10:14;;;;;;;4.78;2.58;;;19.10;44.40;;;;;;6220640;23;20183;-92
2022/06/14 08:12:58;;;;;;;5.68;2.40;;;19.20;44.40;;;;;;6228385;23;20140;-92
2022/06/14 08:15:27;;;;;;;5.15;2.70;;;19.20;44.40;;;;;;6237750;23;20562;-91
2022/06/14 08:18:22;;;;;;;5.65;2.53;;;19.20;45.20;;;;;;6241943;22;20208;-92
2022/06/14 08:21:26;;;;;;;5.63;2.40;;;19.20;44.20;;;;;;6243922;22;20207;-92
2022/06/14 08:24:07;;;;;;;7.22;2.60;;;19.00;46.30;;;;;;6187470;23;20180;-92
2022/06/14 08:26:36;;;;;;;3.55;2.50;;;18.80;46.30;;;;;;6230621;23;20148;-91
2022/06/14 08:29:33;;;;;;;4.10;2.65;;;18.90;43.50;;;;;;6259990;22;20225;-91
2022/06/14 08:32:16;;;;;;;4.07;2.40;;;18.90;43.60;;;;;;6230302;23;20156;-92
2022/06/14 08:35:00;;;;;;;4.32;2.17;;;19.00;44.20;;;;;;6236064;22;20133;-90
2022/06/14 08:37:50;;;;;;;6.05;2.40;;;19.00;45.10;;;;;;6267843;22;20171;-92
2022/06/14 08:40:37;;;;;;;3.58;2.28;;;19.20;43.40;;;;;;6181776;23;20305;-91
2022/06/14 08:43:09;;;;;;;4.38;2.65;;;19.00;44.90;;;;;;6229289;23;20187;-91
2022/06/14 08:46:11;;;;;;;3.35;2.10;;;19.00;43.80;;;;;;6223274;23;20153;-91
2022/06/14 08:49:20;;;;;;;8.68;2.40;;;18.90;44.20;;;;;;6208771;23;20195;-92
2022/06/14 08:52:13;;;;;;;4.53;2.30;;;18.80;45.40;;;;;;6185605;23;20148;-92
2022/06/14 08:55:06;;;;;;;4.43;2.17;;;18.80;45.90;;;;;;6245893;22;20188;-93
2022/06/14 08:58:00;;;;;;;5.28;2.40;;;18.90;44.90;;;;;;6245550;22;20147;-92
2022/06/14 09:00:50;;;;;;;4.35;2.78;;;19.00;45.00;;;;;;6244434;23;20199;-92
2022/06/14 09:03:33;;;;;;;6.85;2.40;;;19.10;44.30;;;;;;6269739;22;20216;-92
2022/06/14 09:06:36;;;;;;;3.47;2.10;;;19.10;43.90;;;;;;6270697;22;20133;-93
2022/06/14 09:09:44;;;;;;;9.65;2.72;;;19.10;44.10;;;;;;6230906;22;20176;-92
2022/06/14 09:12:35;;;;;;;2.75;1.80;;;19.10;43.50;;;;;;6220782;23;20141;-91
2022/06/14 09:15:23;;;;;;;4.93;2.13;;;18.90;44.30;;;;;;6234239;23;20156;-92
2022/06/14 09:18:04;;;;;;;5.53;1.92;;;18.90;44.60;;;;;;6262348;22;20304;-93
2022/06/14 09:20:48;;;;;;;4.05;2.05;;;18.90;44.80;;;;;;6228353;23;20231;-92
2022/06/14 09:23:20;;;;;;;3.83;2.40;;;19.00;44.90;;;;;;6219941;23;20249;-92
2022/06/14 09:26:10;;;;;;;3.50;2.25;;;19.10;44.50;;;;;;6220701;23;20572;-92
2022/06/14 09:29:02;;;;;;;6.20;2.55;;;18.80;46.60;;;;;;6239757;23;20176;-92
2022/06/14 09:31:53;;;;;;;4.07;2.22;;;19.00;44.80;;;;;;6228514;23;20583;-92
2022/06/14 09:34:35;;;;;;;5.25;2.55;;;19.10;44.90;;;;;;6221334;23;20311;-92
2022/06/14 09:37:15;;;;;;;2.88;2.10;;;19.00;44.50;;;;;;6219618;23;20152;-92
2022/06/14 09:39:59;;;;;;;6.30;2.40;;;19.00;44.70;;;;;;6220735;23;20259;-93
2022/06/14 09:42:36;;;;;;;4.45;2.35;;;19.10;44.40;;;;;;6222605;23;20236;-92
2022/06/14 09:45:11;;;;;;;5.00;2.00;;;19.20;44.50;;;;;;6220036;23;20153;-92
2022/06/14 09:48:16;;;;;;;3.28;2.50;;;19.20;44.30;;;;;;6219100;23;20228;-92
2022/06/14 09:51:04;;;;;;;3.95;2.13;;;19.00;46.10;;;;;;6220674;23;20164;-93
2022/06/14 09:54:00;;;;;;;3.00;2.08;;;19.10;46.20;;;;;;6247111;23;20531;-92
2022/06/14 09:56:46;;;;;;;3.10;2.20;;;19.20;46.60;;;;;;6247987;23;20148;-92
2022/06/14 09:59:14;;;;;;;3.53;2.60;;;19.30;44.60;;;;;;6219058;23;20556;-92
2022/06/14 10:02:04;;;;;;;6.28;2.30;;;19.30;44.10;;;;;;6220584;23;20195;-93
2022/06/14 10:04:36;;;;;;;3.67;1.92;;;19.30;44.20;;;;;;6239094;22;20207;-92
2022/06/14 10:07:25;;;;;;;4.07;2.10;;;19.10;44.80;;;;;;6233209;22;20182;-92
2022/06/14 10:10:16;;;;;;;3.83;2.00;;;19.30;44.80;;;;;;6269487;22;20164;-93
2022/06/14 10:13:00;;;;;;;7.00;2.05;;;19.40;44.40;;;;;;6207025;22;20155;-91
2022/06/14 10:15:26;;;;;;;3.13;2.58;;;19.40;45.20;;;;;;6268594;22;20144;-91
2022/06/14 10:18:21;;;;;;;4.27;2.60;;;19.60;44.00;;;;;;6241953;22;20235;-92
2022/06/14 10:21:11;;;;;;;4.97;2.67;;;19.50;44.50;;;;;;6235371;22;20268;-92
2022/06/14 10:23:53;;;;;;;3.22;2.20;;;19.60;43.50;;;;;;6269332;22;20159;-92
2022/06/14 10:29:54;;;;;;;8.25;3.17;;;19.70;43.90;;;;;;6266055;22;20191;-92
2022/06/14 10:33:03;;;;;;;4.37;2.87;;;19.80;43.00;;;;;;6244410;22;20151;-92
2022/06/14 10:35:44;;;;;;;6.30;2.40;;;19.80;42.80;;;;;;6229866;23;20391;-91
2022/06/14 10:38:41;;;;;;;5.32;2.50;;;19.80;43.00;;;;;;6250058;22;20188;-92
2022/06/14 10:41:23;;;;;;;4.45;2.55;;;19.80;42.80;;;;;;6257643;23;20172;-91
2022/06/14 10:44:21;;;;;;;3.83;2.40;;;19.80;43.20;;;;;;6220054;23;20202;-92
2022/06/14 10:47:01;;;;;;;3.40;2.47;;;19.90;42.80;;;;;;6263774;23;20137;-92
2022/06/14 10:50:21;;;;;;;8.27;2.65;;;20.00;42.70;;;;;;6220017;23;20652;-91
2022/06/14 10:53:12;;;;;;;3.88;2.75;;;19.90;42.50;;;;;;6173635;23;20155;-91
2022/06/14 10:55:44;;;;;;;5.55;2.65;;;20.00;41.80;;;;;;6128860;23;20159;-91
2022/06/14 10:58:28;;;;;;;6.07;2.65;;;20.00;41.90;;;;;;6201103;23;20267;-91
2022/06/14 11:01:08;;;;;;;16.33;3.83;;;20.00;42.20;;;;;;6219639;23;20505;-91
2022/06/14 11:03:40;;;;;;;4.60;2.33;;;20.10;41.80;;;;;;6219947;23;20407;-92
2022/06/14 11:06:51;;;;;;;5.17;2.83;;;20.10;41.50;;;;;;6231631;22;20148;-94
2022/06/14 11:09:26;;;;;;;8.30;3.03;;;20.20;41.50;;;;;;6228511;23;20500;-92
2022/06/14 11:12:22;;;;;;;6.33;3.03;;;20.30;41.90;;;;;;6220852;23;20448;-92
2022/06/14 11:15:26;;;;;;;8.25;2.53;;;20.40;42.40;;;;;;6220134;23;20383;-92
2022/06/14 11:18:16;;;;;;;4.53;2.70;;;20.40;41.60;;;;;;6132526;23;20166;-91
2022/06/14 11:20:42;;;;;;;4.97;3.03;;;20.30;41.90;;;;;;6239275;22;20435;-90
2022/06/14 11:23:31;;;;;;;2.93;2.37;;;20.20;43.20;;;;;;6250671;23;20469;-90
2022/06/14 11:26:22;;;;;;;5.30;3.43;;;20.20;43.50;;;;;;6220247;23;20206;-91
2022/06/14 11:29:03;;;;;;;5.43;2.70;;;20.40;43.10;;;;;;6222803;23;20478;-92
2022/06/14 11:31:44;;;;;;;6.50;2.17;;;20.60;41.40;;;;;;6221525;23;20395;-92
2022/06/14 11:34:26;;;;;;;2.73;2.10;;;20.70;40.80;;;;;;6222378;23;20502;-91
2022/06/14 11:37:01;;;;;;;5.30;2.47;;;20.70;41.00;;;;;;6266342;22;20387;-93
2022/06/14 11:39:34;;;;;;;4.43;2.80;;;20.80;40.30;;;;;;6244309;23;20418;-92
2022/06/14 11:42:14;;;;;;;4.93;2.47;;;20.70;41.00;;;;;;6244489;22;20481;-93
2022/06/14 11:44:54;;;;;;;8.17;3.00;;;20.50;42.20;;;;;;6244728;22;20440;-92
2022/06/14 11:47:39;;;;;;;4.17;2.50;;;20.60;41.20;;;;;;6245424;22;20375;-92
2022/06/14 11:50:23;;;;;;;2.97;2.43;;;20.40;42.10;;;;;;6245991;22;20410;-92
2022/06/14 11:53:02;;;;;;;6.93;2.70;;;20.20;43.60;;;;;;6208359;23;20391;-92
2022/06/14 11:55:40;;;;;;;6.50;2.80;;;20.30;44.50;;;;;;6221984;23;20379;-91
2022/06/14 11:58:11;;;;;;;5.03;2.63;;;20.60;41.90;;;;;;6222584;22;20501;-92
2022/06/14 12:00:37;;;;;;;4.47;2.33;;;20.80;41.40;;;;;;6220978;23;20504;-92
2022/06/14 12:03:15;;;;;;;5.73;2.90;;;20.80;41.20;;;;;;6220515;23;20789;-93
2022/06/14 12:06:00;;;;;;;6.00;2.80;;;20.90;40.80;;;;;;6248229;23;20167;-92
2022/06/14 12:09:07;;;;;;;6.40;2.10;;;20.80;41.30;;;;;;6249271;22;20448;-92
2022/06/14 12:11:40;;;;;;;2.80;1.80;;;20.80;40.40;;;;;;6221949;23;20387;-93
2022/06/14 12:14:50;;;;;;;3.97;2.40;;;20.90;40.90;;;;;;6232370;23;20403;-93
2022/06/14 12:17:54;;;;;;;4.60;2.37;;;21.00;40.20;;;;;;6224171;23;20837;-92
2022/06/14 12:20:24;;;;;;;5.27;2.67;;;21.10;39.80;;;;;;6148106;23;20438;-92
2022/06/14 12:23:03;;;;;;;5.00;2.40;;;21.00;39.90;;;;;;6227225;22;20415;-93
2022/06/14 12:29:04;;;;;;;4.30;2.10;;;20.70;40.90;;;;;;6266215;22;20394;-91
2022/06/14 12:31:50;;;;;;;4.90;2.07;;;20.70;42.10;;;;;;6229689;23;20376;-93
2022/06/14 12:34:35;;;;;;;4.27;2.87;;;21.00;41.20;;;;;;6224052;23;20379;-93
2022/06/14 12:37:27;;;;;;;4.73;2.83;;;21.20;40.50;;;;;;6220773;23;20809;-93
2022/06/14 12:39:56;;;;;;;3.87;2.27;;;21.40;40.20;;;;;;6220114;23;20435;-93
2022/06/14 12:42:43;;;;;;;4.33;2.00;;;21.30;40.00;;;;;;6220152;23;20482;-92
2022/06/14 12:45:13;;;;;;;4.77;2.67;;;21.30;40.20;;;;;;6220489;23;20386;-92
2022/06/14 12:47:50;;;;;;;4.90;2.50;;;21.50;40.80;;;;;;6220203;23;20368;-93
2022/06/14 12:50:35;;;;;;;4.27;2.60;;;21.50;40.00;;;;;;6247998;23;20359;-93
2022/06/14 12:53:24;;;;;;;8.10;2.67;;;21.50;39.10;;;;;;6222271;23;20884;-93
2022/06/14 12:56:06;;;;;;;5.47;2.50;;;21.60;39.10;;;;;;6221937;23;20393;-92
2022/06/14 12:59:16;;;;;;;2.97;2.23;;;21.70;38.80;;;;;;6240383;23;20395;-93
2022/06/14 13:02:09;;;;;;;4.40;3.03;;;21.70;38.90;;;;;;6220767;23;20815;-93
2022/06/14 13:04:49;;;;;;;7.80;3.30;;;21.80;39.00;;;;;;6220594;23;20474;-92
2022/06/14 13:07:40;;;;;;;3.93;2.60;;;21.90;39.00;;;;;;6220645;23;20371;-92
2022/06/14 13:10:27;;;;;;;3.77;2.07;;;21.90;38.90;;;;;;6238734;22;20411;-95
2022/06/14 13:13:12;;;;;;;5.73;2.50;;;21.90;38.70;;;;;;6229234;22;20391;-93
2022/06/14 13:16:23;;;;;;;3.73;2.40;;;22.00;38.30;;;;;;6220178;23;20379;-93
2022/06/14 13:19:14;;;;;;;3.00;1.90;;;22.00;37.40;;;;;;6200311;23;20407;-93
2022/06/14 13:22:21;;;;;;;6.57;2.57;;;21.90;38.30;;;;;;6219397;23;20431;-93
2022/06/14 13:25:28;;;;;;;3.63;2.83;;;22.00;38.00;;;;;;6154555;23;20378;-93
2022/06/14 13:28:44;;;;;;;8.03;2.37;;;22.10;37.40;;;;;;6152562;23;20532;-93
2022/06/14 13:31:55;;;;;;;3.07;2.10;;;21.90;39.10;;;;;;6128905;23;20378;-93
2022/06/14 13:34:24;;;;;;;8.73;3.10;;;21.90;39.20;;;;;;6129275;23;20456;-93
2022/06/14 13:37:18;;;;;;;5.57;2.33;;;22.10;38.80;;;;;;6197886;23;20395;-93
2022/06/14 13:40:21;;;;;;;5.50;2.17;;;22.20;38.00;;;;;;6219926;23;20853;-92
2022/06/14 13:43:08;;;;;;;4.70;2.37;;;22.10;38.00;;;;;;6146176;23;20391;-93
2022/06/14 13:45:46;;;;;;;3.87;2.10;;;22.10;38.50;;;;;;6222876;23;20380;-92
2022/06/14 13:48:42;;;;;;;3.53;2.30;;;22.20;38.40;;;;;;6252291;22;20391;-93
2022/06/14 13:51:17;;;;;;;6.17;2.60;;;22.20;38.90;;;;;;6219257;23;20379;-92
2022/06/14 13:54:31;;;;;;;5.70;2.33;;;22.30;38.00;;;;;;6221777;23;20837;-92
2022/06/14 13:57:32;;;;;;;4.03;2.27;;;22.30;38.00;;;;;;6229292;23;20470;-93
2022/06/14 14:00:21;;;;;;;9.03;2.17;;;22.10;38.30;;;;;;6225833;23;20430;-92
2022/06/14 14:02:49;;;;;;;7.10;2.30;;;22.10;38.70;;;;;;6219750;23;20396;-93
2022/06/14 14:05:52;;;;;;;3.20;1.70;;;22.30;37.20;;;;;;6219159;23;20407;-93
2022/06/14 14:08:40;;;;;;;6.43;2.20;;;22.20;38.70;;;;;;6220078;23;20407;-93
2022/06/14 14:11:32;;;;;;;3.13;2.10;;;22.30;37.50;;;;;;6230032;22;20375;-93
2022/06/14 14:14:07;;;;;;;2.47;2.20;;;22.40;36.90;;;;;;6238870;22;20506;-94
2022/06/14 14:16:48;;;;;;;6.70;2.00;;;22.40;38.40;;;;;;6238223;22;20418;-93
2022/06/14 14:20:08;;;;;;;6.80;2.00;;;22.10;39.00;;;;;;6243035;22;20491;-93
2022/06/14 14:22:42;;;;;;;3.73;2.40;;;22.20;38.10;;;;;;6239702;23;20407;-93
2022/06/14 14:25:25;;;;;;;3.00;2.20;;;22.50;37.70;;;;;;6265804;23;20348;-93
2022/06/14 14:28:09;;;;;;;2.83;2.27;;;22.60;37.80;;;;;;6220796;22;20465;-93